Time;durP1;ratioP1;P1;durP2;ratioP2;P2;SDS_P1;SDS_P2;PMS_P1;PMS_P2;Temp;Humidity;BMP_temperature;BMP_pressure;BME280_temperature;BME280_humidity;BME280_pressure;Samples;Min_cycle;Max_cycle;Signal;HPM_P1;HPM_P2
2023/08/13 00:00:32;;;;;;;4.00;1.80;;;;;;;;;;5110568;28;20653;-52
2023/08/13 00:02:59;;;;;;;4.27;1.50;;;;;;;;;;5113278;28;20438;-53
2023/08/13 00:05:28;;;;;;;2.40;1.50;;;;;;;;;;5113216;28;20455;-53
2023/08/13 00:07:55;;;;;;;3.10;1.33;;;;;;;;;;5113047;28;20549;-54
2023/08/13 00:10:22;;;;;;;4.13;1.67;;;;;;;;;;5112829;28;20874;-52
2023/08/13 00:12:49;;;;;;;2.30;1.30;;;;;;;;;;5112963;28;20438;-53
2023/08/13 00:15:17;;;;;;;2.23;1.30;;;;;;;;;;5113242;28;20454;-51
2023/08/13 00:17:44;;;;;;;2.10;1.17;;;;;;;;;;5112858;28;20470;-53
2023/08/13 00:20:12;;;;;;;4.93;1.50;;;;;;;;;;5112481;28;21001;-53
2023/08/13 00:22:40;;;;;;;3.60;1.57;;;;;;;;;;5110252;28;20435;-53
2023/08/13 00:25:08;;;;;;;4.60;1.27;;;;;;;;;;5112982;28;20508;-53
2023/08/13 00:27:35;;;;;;;3.10;1.20;;;;;;;;;;5112738;28;20466;-53
2023/08/13 00:30:03;;;;;;;6.60;1.73;;;;;;;;;;5112672;28;21001;-54
2023/08/13 00:32:30;;;;;;;3.07;1.40;;;;;;;;;;5112039;28;20457;-53
2023/08/13 00:34:57;;;;;;;4.93;1.27;;;;;;;;;;5112266;28;20878;-53
2023/08/13 00:37:24;;;;;;;2.60;1.53;;;;;;;;;;5113226;28;20985;-53
2023/08/13 00:39:53;;;;;;;3.10;1.40;;;;;;;;;;5112534;28;20538;-54
2023/08/13 00:42:20;;;;;;;2.10;1.10;;;;;;;;;;5112656;28;21033;-53
2023/08/13 00:44:47;;;;;;;2.77;1.20;;;;;;;;;;5112413;28;20545;-52
2023/08/13 00:47:15;;;;;;;2.90;1.37;;;;;;;;;;5112933;28;20532;-53
2023/08/13 00:49:42;;;;;;;2.70;1.40;;;;;;;;;;5112789;28;20446;-51
2023/08/13 00:52:09;;;;;;;2.90;1.30;;;;;;;;;;5100246;28;21003;-53
2023/08/13 00:54:37;;;;;;;2.10;1.20;;;;;;;;;;5092611;28;20974;-53
2023/08/13 00:57:06;;;;;;;2.10;1.00;;;;;;;;;;5112656;28;20492;-53
2023/08/13 00:59:34;;;;;;;3.53;1.23;;;;;;;;;;5112502;28;20485;-54
2023/08/13 01:02:01;;;;;;;2.60;1.20;;;;;;;;;;5112408;28;20451;-53
2023/08/13 01:04:28;;;;;;;2.00;0.80;;;;;;;;;;5112513;28;21035;-52
2023/08/13 01:07:02;;;;;;;2.87;1.10;;;;;;;;;;5112356;28;20470;-52
2023/08/13 01:09:35;;;;;;;1.83;1.00;;;;;;;;;;5112619;28;20469;-52
2023/08/13 01:12:07;;;;;;;4.23;1.47;;;;;;;;;;5111806;28;20435;-52
2023/08/13 01:14:38;;;;;;;2.27;1.17;;;;;;;;;;5112007;28;20470;-52
2023/08/13 01:17:08;;;;;;;2.10;1.03;;;;;;;;;;5112051;28;20510;-52
2023/08/13 01:19:35;;;;;;;4.93;1.50;;;;;;;;;;5112116;28;20651;-53
2023/08/13 01:22:02;;;;;;;2.83;1.50;;;;;;;;;;5106955;28;20431;-52
2023/08/13 01:24:31;;;;;;;4.67;1.30;;;;;;;;;;5111615;28;20533;-52
2023/08/13 01:27:03;;;;;;;1.90;1.00;;;;;;;;;;5112025;28;21094;-52
2023/08/13 01:29:33;;;;;;;2.53;1.10;;;;;;;;;;5112303;28;20451;-52
2023/08/13 01:32:02;;;;;;;2.23;1.17;;;;;;;;;;5111339;28;20544;-53
2023/08/13 01:34:30;;;;;;;2.20;1.20;;;;;;;;;;5111469;28;20934;-52
2023/08/13 01:36:57;;;;;;;2.00;1.00;;;;;;;;;;5112499;28;20491;-52
2023/08/13 01:39:25;;;;;;;2.43;0.80;;;;;;;;;;5111677;28;20519;-54
2023/08/13 01:41:54;;;;;;;1.97;1.03;;;;;;;;;;5110771;28;20781;-53
2023/08/13 01:44:21;;;;;;;1.83;0.87;;;;;;;;;;5112296;28;21050;-53
2023/08/13 01:46:49;;;;;;;1.90;0.77;;;;;;;;;;5111778;28;20474;-53
2023/08/13 01:49:19;;;;;;;2.40;1.13;;;;;;;;;;5111658;28;20442;-52
2023/08/13 01:51:46;;;;;;;1.70;0.80;;;;;;;;;;5111486;28;20443;-52
2023/08/13 01:54:14;;;;;;;2.10;0.93;;;;;;;;;;5098592;28;20435;-52
2023/08/13 01:56:41;;;;;;;4.50;1.00;;;;;;;;;;5091561;28;20526;-52
2023/08/13 01:59:10;;;;;;;2.03;0.80;;;;;;;;;;5105596;28;20446;-52
2023/08/13 02:01:37;;;;;;;2.20;1.13;;;;;;;;;;5111173;28;21069;-52
2023/08/13 02:04:04;;;;;;;2.00;0.80;;;;;;;;;;5111483;28;20438;-52
2023/08/13 02:06:33;;;;;;;1.70;0.70;;;;;;;;;;5111531;28;20477;-52
2023/08/13 02:09:00;;;;;;;2.03;0.80;;;;;;;;;;5111357;28;20519;-53
2023/08/13 02:11:27;;;;;;;2.23;0.90;;;;;;;;;;5111299;28;20478;-53
2023/08/13 02:13:55;;;;;;;2.67;0.83;;;;;;;;;;5111301;28;20447;-54
2023/08/13 02:16:23;;;;;;;1.70;0.80;;;;;;;;;;5111272;28;20503;-53
2023/08/13 02:18:51;;;;;;;1.60;0.70;;;;;;;;;;5111144;28;20741;-53
2023/08/13 02:21:19;;;;;;;3.30;0.90;;;;;;;;;;5110617;28;20488;-52
2023/08/13 02:23:46;;;;;;;2.20;0.90;;;;;;;;;;5110803;28;20481;-53
2023/08/13 02:26:14;;;;;;;2.70;1.17;;;;;;;;;;5096105;22;20575;-55
2023/08/13 02:28:43;;;;;;;1.90;0.90;;;;;;;;;;5070314;28;20472;-54
2023/08/13 02:31:11;;;;;;;2.50;0.90;;;;;;;;;;5077264;28;20443;-55
2023/08/13 02:33:39;;;;;;;1.80;0.80;;;;;;;;;;5083182;28;20538;-54
2023/08/13 02:36:06;;;;;;;2.37;1.03;;;;;;;;;;5090314;28;20502;-55
2023/08/13 02:38:34;;;;;;;2.03;1.10;;;;;;;;;;5090614;28;20467;-55
2023/08/13 02:41:01;;;;;;;1.87;0.80;;;;;;;;;;5090496;28;20440;-55
2023/08/13 02:43:29;;;;;;;1.93;0.80;;;;;;;;;;5089867;28;20530;-57
2023/08/13 02:45:56;;;;;;;4.00;1.30;;;;;;;;;;5069934;28;20975;-52
2023/08/13 02:48:23;;;;;;;2.47;0.93;;;;;;;;;;5070773;28;20558;-55
2023/08/13 02:50:52;;;;;;;3.87;1.10;;;;;;;;;;5070620;28;20494;-54
2023/08/13 02:53:19;;;;;;;3.00;0.90;;;;;;;;;;5050349;28;20437;-56
2023/08/13 02:55:46;;;;;;;4.10;1.00;;;;;;;;;;5088565;28;20550;-56
2023/08/13 02:58:13;;;;;;;3.43;1.03;;;;;;;;;;5090459;28;20962;-55
2023/08/13 03:00:41;;;;;;;1.90;0.80;;;;;;;;;;5090393;28;20435;-56
2023/08/13 03:03:08;;;;;;;2.70;1.00;;;;;;;;;;5077696;28;20455;-57
2023/08/13 03:05:35;;;;;;;1.93;1.13;;;;;;;;;;5070348;28;21090;-55
2023/08/13 03:08:04;;;;;;;2.80;0.93;;;;;;;;;;5076572;28;20550;-57
2023/08/13 03:10:31;;;;;;;2.57;0.90;;;;;;;;;;5090168;28;20531;-54
2023/08/13 03:12:58;;;;;;;1.90;0.97;;;;;;;;;;5080078;28;20519;-56
2023/08/13 03:15:26;;;;;;;1.83;0.67;;;;;;;;;;5070330;28;20514;-52
2023/08/13 03:17:53;;;;;;;3.40;0.80;;;;;;;;;;5070655;28;20440;-58
2023/08/13 03:20:20;;;;;;;2.00;1.00;;;;;;;;;;5070225;28;20444;-56
2023/08/13 03:22:47;;;;;;;4.90;1.10;;;;;;;;;;5078129;28;20530;-57
2023/08/13 03:25:16;;;;;;;2.00;1.20;;;;;;;;;;5090508;28;20499;-56
2023/08/13 03:27:43;;;;;;;2.10;1.00;;;;;;;;;;5090072;28;20874;-56
2023/08/13 03:30:10;;;;;;;2.37;0.80;;;;;;;;;;5083811;28;20440;-54
2023/08/13 03:32:38;;;;;;;3.43;1.30;;;;;;;;;;5069854;28;20942;-57
2023/08/13 03:35:05;;;;;;;4.30;1.23;;;;;;;;;;5083493;28;20535;-56
2023/08/13 03:37:32;;;;;;;2.80;0.83;;;;;;;;;;5080745;28;20464;-57
2023/08/13 03:40:00;;;;;;;1.77;0.90;;;;;;;;;;5085489;28;20543;-55
2023/08/13 03:42:28;;;;;;;2.00;1.07;;;;;;;;;;5073688;28;20876;-56
2023/08/13 03:44:56;;;;;;;2.67;1.03;;;;;;;;;;5073310;28;20568;-55
2023/08/13 03:47:23;;;;;;;3.23;1.20;;;;;;;;;;5073601;28;20536;-55
2023/08/13 03:49:51;;;;;;;3.90;1.13;;;;;;;;;;5073848;28;20468;-55
2023/08/13 03:52:18;;;;;;;5.10;1.13;;;;;;;;;;5078963;28;20444;-55
2023/08/13 03:54:45;;;;;;;2.30;0.80;;;;;;;;;;5073524;28;20464;-57
2023/08/13 03:57:12;;;;;;;3.87;0.90;;;;;;;;;;5073580;28;20518;-55
2023/08/13 03:59:41;;;;;;;1.87;1.00;;;;;;;;;;5074718;28;20541;-55
2023/08/13 04:02:08;;;;;;;2.20;0.80;;;;;;;;;;5073567;28;20448;-55
2023/08/13 04:04:35;;;;;;;3.50;1.43;;;;;;;;;;5074233;28;20542;-58
2023/08/13 04:07:03;;;;;;;3.73;1.30;;;;;;;;;;5073535;28;20523;-56
2023/08/13 04:09:30;;;;;;;3.30;1.17;;;;;;;;;;5085563;28;20475;-56
2023/08/13 04:11:57;;;;;;;3.73;1.00;;;;;;;;;;5072972;28;20874;-54
2023/08/13 04:14:25;;;;;;;5.00;1.50;;;;;;;;;;5084133;28;20511;-56
2023/08/13 04:16:53;;;;;;;2.07;0.97;;;;;;;;;;5091799;28;20531;-54
2023/08/13 04:19:20;;;;;;;4.03;0.80;;;;;;;;;;5073121;28;21027;-56
2023/08/13 04:21:48;;;;;;;2.40;1.00;;;;;;;;;;5084636;28;20497;-57
2023/08/13 04:24:17;;;;;;;3.20;0.80;;;;;;;;;;5073248;28;20462;-56
2023/08/13 04:26:44;;;;;;;3.00;1.40;;;;;;;;;;5072825;28;20535;-56
2023/08/13 04:29:11;;;;;;;2.03;0.93;;;;;;;;;;5073165;28;20559;-54
2023/08/13 04:31:39;;;;;;;4.23;1.20;;;;;;;;;;5089224;28;20542;-54
2023/08/13 04:34:07;;;;;;;2.80;0.80;;;;;;;;;;5088263;28;20444;-54
2023/08/13 04:36:36;;;;;;;2.60;1.07;;;;;;;;;;5073921;28;20492;-56
2023/08/13 04:39:03;;;;;;;2.20;1.00;;;;;;;;;;5088805;28;20525;-54
2023/08/13 04:41:30;;;;;;;6.07;1.27;;;;;;;;;;5090163;28;20822;-53
2023/08/13 04:43:58;;;;;;;2.10;1.07;;;;;;;;;;5093064;28;20437;-56
2023/08/13 04:46:25;;;;;;;2.37;1.00;;;;;;;;;;5090166;28;20521;-57
2023/08/13 04:48:52;;;;;;;2.10;1.30;;;;;;;;;;5089465;28;20863;-56
2023/08/13 04:51:21;;;;;;;3.57;1.10;;;;;;;;;;5080135;28;20479;-56
2023/08/13 04:53:48;;;;;;;2.90;1.10;;;;;;;;;;5076659;28;20783;-56
2023/08/13 04:56:15;;;;;;;2.57;0.90;;;;;;;;;;5072411;28;20498;-56
2023/08/13 04:58:43;;;;;;;2.10;1.00;;;;;;;;;;5072379;28;20441;-57
2023/08/13 05:01:10;;;;;;;4.67;1.17;;;;;;;;;;5072365;28;20445;-57
2023/08/13 05:03:39;;;;;;;1.80;0.90;;;;;;;;;;5072284;28;20490;-56
2023/08/13 05:06:07;;;;;;;2.53;1.00;;;;;;;;;;5078407;28;20542;-55
2023/08/13 05:08:35;;;;;;;2.80;1.20;;;;;;;;;;5078714;28;20557;-56
2023/08/13 05:11:02;;;;;;;2.07;1.03;;;;;;;;;;5072003;28;20476;-56
2023/08/13 05:13:30;;;;;;;2.37;1.20;;;;;;;;;;5073049;28;20527;-54
2023/08/13 05:15:57;;;;;;;1.90;0.90;;;;;;;;;;5072117;28;20533;-54
2023/08/13 05:18:24;;;;;;;2.50;1.60;;;;;;;;;;5072388;28;20519;-53
2023/08/13 05:20:51;;;;;;;2.77;1.23;;;;;;;;;;5087961;28;20476;-55
2023/08/13 05:23:19;;;;;;;2.90;1.60;;;;;;;;;;5072363;28;20521;-55
2023/08/13 05:25:47;;;;;;;2.67;1.37;;;;;;;;;;5051711;28;20501;-54
2023/08/13 05:28:14;;;;;;;2.57;1.23;;;;;;;;;;5064999;28;20526;-55
2023/08/13 05:30:42;;;;;;;3.20;1.10;;;;;;;;;;5071090;28;20519;-54
2023/08/13 05:33:09;;;;;;;3.67;1.40;;;;;;;;;;5072947;28;20828;-56
2023/08/13 05:35:36;;;;;;;2.03;1.37;;;;;;;;;;5072924;28;20494;-56
2023/08/13 05:38:03;;;;;;;2.67;1.20;;;;;;;;;;5079797;28;20444;-56
2023/08/13 05:40:32;;;;;;;1.97;0.80;;;;;;;;;;5074948;28;20522;-55
2023/08/13 05:43:00;;;;;;;2.87;1.20;;;;;;;;;;5073563;28;20970;-55
2023/08/13 05:45:28;;;;;;;3.80;1.00;;;;;;;;;;5090519;28;20887;-57
2023/08/13 05:47:55;;;;;;;6.03;1.20;;;;;;;;;;5090309;28;20526;-57
2023/08/13 05:50:22;;;;;;;3.73;1.07;;;;;;;;;;5071537;28;20440;-56
2023/08/13 05:52:49;;;;;;;2.43;0.90;;;;;;;;;;5082718;28;20439;-55
2023/08/13 05:55:17;;;;;;;2.50;1.23;;;;;;;;;;5071523;28;20543;-56
2023/08/13 05:57:44;;;;;;;2.00;1.30;;;;;;;;;;5070763;28;21004;-59
2023/08/13 06:00:13;;;;;;;1.87;1.00;;;;;;;;;;5070213;28;20523;-56
2023/08/13 06:02:41;;;;;;;3.03;1.30;;;;;;;;;;5079695;28;20440;-55
2023/08/13 06:05:08;;;;;;;3.73;1.40;;;;;;;;;;5089947;28;20542;-56
2023/08/13 06:07:36;;;;;;;2.37;1.30;;;;;;;;;;5084625;28;20445;-55
2023/08/13 06:10:03;;;;;;;2.60;0.97;;;;;;;;;;5056485;28;20588;-56
2023/08/13 06:12:31;;;;;;;2.40;1.07;;;;;;;;;;5062700;28;20957;-55
2023/08/13 06:14:58;;;;;;;2.83;1.03;;;;;;;;;;5070097;28;20533;-55
2023/08/13 06:17:27;;;;;;;2.10;1.10;;;;;;;;;;5070704;28;20522;-54
2023/08/13 06:19:54;;;;;;;2.50;1.43;;;;;;;;;;5070832;28;20429;-55
2023/08/13 06:22:22;;;;;;;1.73;0.87;;;;;;;;;;5072474;28;20501;-56
2023/08/13 06:24:50;;;;;;;2.00;1.13;;;;;;;;;;5072469;28;20498;-54
2023/08/13 06:27:17;;;;;;;1.97;1.00;;;;;;;;;;5070333;28;20437;-57
2023/08/13 06:29:44;;;;;;;2.40;1.20;;;;;;;;;;5070406;28;20564;-56
2023/08/13 06:32:11;;;;;;;1.70;0.90;;;;;;;;;;5072632;28;20535;-56
2023/08/13 06:34:40;;;;;;;2.10;0.93;;;;;;;;;;5070518;28;20456;-56
2023/08/13 06:37:07;;;;;;;2.87;0.93;;;;;;;;;;5071268;28;20476;-54
2023/08/13 06:39:34;;;;;;;4.50;1.07;;;;;;;;;;5070964;28;20439;-57
2023/08/13 06:42:02;;;;;;;3.30;1.10;;;;;;;;;;5069550;28;20440;-55
2023/08/13 06:44:29;;;;;;;2.80;1.30;;;;;;;;;;5073155;28;20523;-57
2023/08/13 06:46:56;;;;;;;2.20;1.00;;;;;;;;;;5073069;28;20490;-57
2023/08/13 06:49:24;;;;;;;2.90;1.30;;;;;;;;;;5070400;28;20468;-56
2023/08/13 06:51:52;;;;;;;2.03;1.03;;;;;;;;;;5071230;28;20441;-57
2023/08/13 06:54:19;;;;;;;2.27;1.33;;;;;;;;;;5070793;28;20436;-57
2023/08/13 06:56:47;;;;;;;3.80;1.70;;;;;;;;;;5070149;28;20511;-57
2023/08/13 06:59:14;;;;;;;2.90;1.70;;;;;;;;;;5071365;28;20432;-57
2023/08/13 07:01:41;;;;;;;2.63;1.20;;;;;;;;;;5068584;28;20428;-57
2023/08/13 07:04:09;;;;;;;2.10;0.93;;;;;;;;;;5069946;28;20449;-54
2023/08/13 07:06:37;;;;;;;2.57;1.27;;;;;;;;;;5071222;28;20461;-55
2023/08/13 07:09:06;;;;;;;2.43;1.43;;;;;;;;;;5070632;28;21018;-55
2023/08/13 07:11:36;;;;;;;3.10;1.40;;;;;;;;;;5076846;28;20468;-55
2023/08/13 07:14:04;;;;;;;3.67;1.07;;;;;;;;;;5067969;28;20444;-55
2023/08/13 07:16:31;;;;;;;3.90;1.13;;;;;;;;;;5072736;28;20448;-56
2023/08/13 07:18:58;;;;;;;2.70;1.10;;;;;;;;;;5073803;28;20429;-56
2023/08/13 07:21:26;;;;;;;2.87;1.17;;;;;;;;;;5072530;28;20495;-57
2023/08/13 07:23:53;;;;;;;2.33;1.57;;;;;;;;;;5072205;28;20432;-54
2023/08/13 07:26:22;;;;;;;2.30;1.27;;;;;;;;;;5070793;28;20452;-56
2023/08/13 07:28:49;;;;;;;2.17;1.30;;;;;;;;;;5073226;28;20563;-58
2023/08/13 07:31:19;;;;;;;2.20;1.10;;;;;;;;;;5072176;28;20475;-55
2023/08/13 07:33:46;;;;;;;2.90;1.50;;;;;;;;;;5073131;28;20460;-56
2023/08/13 07:36:13;;;;;;;2.40;1.23;;;;;;;;;;5072704;28;20546;-54
2023/08/13 07:38:40;;;;;;;2.57;1.17;;;;;;;;;;5069995;28;20994;-57
2023/08/13 07:41:08;;;;;;;4.33;1.70;;;;;;;;;;5073046;28;20523;-55
2023/08/13 07:43:36;;;;;;;2.20;1.37;;;;;;;;;;5072975;28;20470;-56
2023/08/13 07:46:04;;;;;;;2.83;1.30;;;;;;;;;;5070493;28;20534;-57
2023/08/13 07:48:31;;;;;;;2.47;1.60;;;;;;;;;;5073048;28;20468;-55
2023/08/13 07:50:58;;;;;;;2.00;1.33;;;;;;;;;;5073136;28;20887;-56
2023/08/13 07:53:25;;;;;;;4.77;1.67;;;;;;;;;;5072529;28;20511;-55
2023/08/13 07:55:53;;;;;;;5.83;1.40;;;;;;;;;;5072494;28;20466;-54
2023/08/13 07:58:20;;;;;;;2.10;1.10;;;;;;;;;;5072812;28;20490;-54
2023/08/13 08:00:48;;;;;;;2.30;1.13;;;;;;;;;;5072474;28;20512;-54
2023/08/13 08:03:16;;;;;;;2.20;1.50;;;;;;;;;;5069702;28;20436;-55
2023/08/13 08:05:47;;;;;;;2.20;1.20;;;;;;;;;;5072854;28;20488;-54
2023/08/13 08:08:14;;;;;;;3.03;1.40;;;;;;;;;;5073010;28;20436;-54
2023/08/13 08:10:42;;;;;;;2.33;1.07;;;;;;;;;;5072996;28;20920;-54
2023/08/13 08:13:09;;;;;;;3.10;1.27;;;;;;;;;;5072938;28;20472;-55
2023/08/13 08:15:36;;;;;;;3.53;1.80;;;;;;;;;;5071386;28;20545;-56
2023/08/13 08:18:05;;;;;;;2.50;1.33;;;;;;;;;;5067692;28;20456;-54
2023/08/13 08:20:32;;;;;;;3.40;1.50;;;;;;;;;;5066389;28;20943;-56
2023/08/13 08:23:00;;;;;;;2.63;1.60;;;;;;;;;;5066499;28;20476;-55
2023/08/13 08:25:27;;;;;;;2.50;1.23;;;;;;;;;;5090435;22;20490;-54
2023/08/13 08:27:54;;;;;;;3.47;1.50;;;;;;;;;;5082228;28;20772;-55
2023/08/13 08:30:22;;;;;;;2.77;1.33;;;;;;;;;;5081951;28;20599;-55
2023/08/13 08:32:49;;;;;;;2.10;0.97;;;;;;;;;;5081690;28;20451;-55
2023/08/13 08:35:18;;;;;;;2.60;1.13;;;;;;;;;;5078245;28;20578;-54
2023/08/13 08:37:45;;;;;;;2.60;1.40;;;;;;;;;;5070738;28;20529;-55
2023/08/13 08:40:13;;;;;;;2.80;1.50;;;;;;;;;;5069536;28;20531;-54
2023/08/13 08:42:41;;;;;;;2.47;1.13;;;;;;;;;;5067758;28;20527;-55
2023/08/13 08:45:11;;;;;;;3.23;1.50;;;;;;;;;;5071253;28;20498;-54
2023/08/13 08:47:40;;;;;;;4.60;1.87;;;;;;;;;;5069213;28;20519;-54
2023/08/13 08:50:08;;;;;;;2.10;1.13;;;;;;;;;;5068932;28;20583;-52
2023/08/13 08:52:37;;;;;;;2.43;1.13;;;;;;;;;;5068710;28;20531;-55
2023/08/13 08:55:04;;;;;;;2.37;1.20;;;;;;;;;;5069204;28;20555;-54
2023/08/13 08:57:31;;;;;;;3.93;1.33;;;;;;;;;;5068868;28;20531;-54
2023/08/13 08:59:58;;;;;;;3.37;1.53;;;;;;;;;;5063247;28;20512;-54
2023/08/13 09:02:26;;;;;;;2.40;1.47;;;;;;;;;;5068816;28;20464;-54
2023/08/13 09:04:53;;;;;;;2.10;1.20;;;;;;;;;;5068227;28;20535;-54
2023/08/13 09:07:20;;;;;;;3.17;1.30;;;;;;;;;;5069032;28;20542;-54
2023/08/13 09:09:51;;;;;;;2.27;1.37;;;;;;;;;;5067531;28;20553;-54
2023/08/13 09:12:18;;;;;;;2.73;1.30;;;;;;;;;;5068406;28;20432;-54
2023/08/13 09:14:45;;;;;;;1.93;1.17;;;;;;;;;;5068268;28;20524;-54
2023/08/13 09:17:13;;;;;;;2.07;1.03;;;;;;;;;;5067784;28;20483;-53
2023/08/13 09:19:40;;;;;;;3.13;1.13;;;;;;;;;;5067370;28;20909;-54
2023/08/13 09:22:09;;;;;;;3.10;1.37;;;;;;;;;;5067020;28;21031;-54
2023/08/13 09:24:38;;;;;;;2.83;1.17;;;;;;;;;;5066392;28;20441;-54
2023/08/13 09:27:07;;;;;;;2.10;1.00;;;;;;;;;;5066925;28;20537;-55
2023/08/13 09:29:35;;;;;;;3.60;1.50;;;;;;;;;;5066974;28;20512;-55
2023/08/13 09:32:03;;;;;;;25.20;14.13;;;;;;;;;;5066908;28;20624;-54
2023/08/13 09:34:32;;;;;;;8.67;3.27;;;;;;;;;;5065948;28;20453;-55
2023/08/13 09:37:00;;;;;;;2.40;1.50;;;;;;;;;;5067750;28;20517;-55
2023/08/13 09:39:28;;;;;;;3.33;1.67;;;;;;;;;;5068139;28;20468;-55
2023/08/13 09:41:55;;;;;;;2.10;1.30;;;;;;;;;;5067355;28;20457;-55
2023/08/13 09:44:25;;;;;;;3.53;1.60;;;;;;;;;;5068421;28;20475;-54
2023/08/13 09:46:54;;;;;;;3.13;1.57;;;;;;;;;;5068227;28;20894;-54
2023/08/13 09:49:22;;;;;;;2.20;1.27;;;;;;;;;;5060553;28;20483;-54
2023/08/13 09:51:50;;;;;;;2.00;1.20;;;;;;;;;;5068080;28;20441;-55
2023/08/13 09:54:24;;;;;;;2.80;1.33;;;;;;;;;;5065642;28;20531;-56
2023/08/13 09:56:54;;;;;;;2.10;1.07;;;;;;;;;;5074617;28;20842;-56
2023/08/13 09:59:21;;;;;;;3.47;1.33;;;;;;;;;;5071940;28;20480;-55
2023/08/13 10:01:50;;;;;;;3.67;1.20;;;;;;;;;;5077848;28;20471;-54
2023/08/13 10:04:17;;;;;;;2.43;1.20;;;;;;;;;;5066397;28;20871;-55
2023/08/13 10:06:46;;;;;;;5.07;1.33;;;;;;;;;;5072253;28;20464;-55
2023/08/13 10:09:14;;;;;;;2.03;1.07;;;;;;;;;;5078993;28;20464;-56
2023/08/13 10:11:41;;;;;;;5.03;1.50;;;;;;;;;;5069383;28;20441;-55
2023/08/13 10:14:08;;;;;;;4.07;1.33;;;;;;;;;;5071081;28;20859;-55
2023/08/13 10:16:36;;;;;;;3.10;1.57;;;;;;;;;;5069651;28;20544;-56
2023/08/13 10:19:07;;;;;;;3.47;1.57;;;;;;;;;;5069737;28;20528;-54
2023/08/13 10:21:35;;;;;;;2.93;1.53;;;;;;;;;;5050444;28;20947;-54
2023/08/13 10:24:03;;;;;;;3.03;1.93;;;;;;;;;;5055293;28;20520;-55
2023/08/13 10:26:30;;;;;;;2.50;1.60;;;;;;;;;;5072763;28;20471;-56
2023/08/13 10:28:57;;;;;;;2.87;1.43;;;;;;;;;;5071172;28;20464;-54
2023/08/13 10:31:31;;;;;;;3.30;1.20;;;;;;;;;;5069950;28;20511;-54
2023/08/13 10:34:02;;;;;;;2.90;1.30;;;;;;;;;;5069953;28;20814;-55
2023/08/13 10:36:44;;;;;;;2.47;1.10;;;;;;;;;;5068691;28;20464;-54
2023/08/13 10:39:31;;;;;;;2.83;1.70;;;;;;;;;;5069468;28;20544;-55
2023/08/13 10:41:58;;;;;;;3.17;1.70;;;;;;;;;;5068324;28;20506;-55
2023/08/13 10:44:29;;;;;;;3.57;1.93;;;;;;;;;;5073874;28;20531;-55
2023/08/13 10:46:56;;;;;;;2.60;1.57;;;;;;;;;;5073482;28;20449;-55
2023/08/13 10:49:24;;;;;;;3.10;1.60;;;;;;;;;;5069574;28;20493;-55
2023/08/13 10:51:52;;;;;;;2.83;1.40;;;;;;;;;;5069554;28;20432;-54
2023/08/13 10:54:20;;;;;;;2.60;1.50;;;;;;;;;;5069582;28;20927;-55
2023/08/13 10:56:55;;;;;;;2.50;1.50;;;;;;;;;;5073863;28;20460;-55
2023/08/13 10:59:29;;;;;;;3.30;1.70;;;;;;;;;;5078249;28;20448;-55
2023/08/13 11:02:11;;;;;;;57.30;19.07;;;;;;;;;;5074445;28;20493;-56
2023/08/13 11:04:38;;;;;;;3.20;1.50;;;;;;;;;;5064317;28;20502;-55
2023/08/13 11:07:07;;;;;;;4.20;1.43;;;;;;;;;;5069395;28;20475;-56
2023/08/13 11:09:35;;;;;;;3.77;1.90;;;;;;;;;;5068081;28;20475;-55
2023/08/13 11:12:02;;;;;;;40.47;11.63;;;;;;;;;;5068950;28;20532;-56
2023/08/13 11:14:29;;;;;;;3.50;1.87;;;;;;;;;;5078323;28;20570;-56
2023/08/13 11:16:57;;;;;;;2.57;1.67;;;;;;;;;;5067050;28;21065;-55
2023/08/13 11:19:24;;;;;;;3.13;1.60;;;;;;;;;;5067615;28;20527;-55
2023/08/13 11:21:51;;;;;;;29.73;9.10;;;;;;;;;;5067043;28;20515;-55
2023/08/13 11:24:20;;;;;;;6.40;3.20;;;;;;;;;;5081506;28;20440;-56
2023/08/13 11:26:48;;;;;;;2.40;1.53;;;;;;;;;;5068017;28;20563;-56
2023/08/13 11:29:19;;;;;;;2.90;1.80;;;;;;;;;;5068354;28;20443;-54
2023/08/13 11:31:46;;;;;;;4.00;1.40;;;;;;;;;;5067988;28;20479;-55
2023/08/13 11:34:15;;;;;;;2.63;1.63;;;;;;;;;;5071018;28;20554;-55
2023/08/13 11:36:42;;;;;;;3.30;1.73;;;;;;;;;;5080101;28;21045;-55
2023/08/13 11:39:09;;;;;;;4.83;1.53;;;;;;;;;;5089121;28;20865;-55
2023/08/13 11:41:38;;;;;;;2.77;1.70;;;;;;;;;;5089473;28;20527;-55
2023/08/13 11:44:06;;;;;;;2.83;1.63;;;;;;;;;;5089530;28;20504;-55
2023/08/13 11:46:48;;;;;;;3.13;1.40;;;;;;;;;;5087538;28;20498;-56
2023/08/13 11:49:17;;;;;;;2.50;1.73;;;;;;;;;;5089416;28;20463;-55
2023/08/13 11:51:44;;;;;;;3.67;1.50;;;;;;;;;;5089822;28;20479;-56
2023/08/13 11:54:11;;;;;;;2.90;1.77;;;;;;;;;;5090011;28;20815;-55
2023/08/13 11:56:41;;;;;;;2.30;1.63;;;;;;;;;;5091397;28;20477;-56
2023/08/13 11:59:08;;;;;;;4.03;1.40;;;;;;;;;;5093618;28;20443;-56
2023/08/13 12:01:36;;;;;;;3.40;1.80;;;;;;;;;;5093470;28;20478;-56
2023/08/13 12:04:04;;;;;;;3.47;1.90;;;;;;;;;;5093734;28;20474;-56
2023/08/13 12:06:35;;;;;;;3.77;1.90;;;;;;;;;;5093738;28;20542;-55
2023/08/13 12:09:03;;;;;;;4.00;2.00;;;;;;;;;;5093720;28;20435;-55
2023/08/13 12:11:30;;;;;;;3.70;1.80;;;;;;;;;;5093158;28;20471;-56
2023/08/13 12:14:04;;;;;;;2.70;1.90;;;;;;;;;;5093698;28;20474;-55
2023/08/13 12:16:32;;;;;;;2.30;1.73;;;;;;;;;;5089850;28;20455;-55
2023/08/13 12:18:59;;;;;;;3.10;2.30;;;;;;;;;;5073273;28;20527;-56
2023/08/13 12:21:27;;;;;;;3.23;1.90;;;;;;;;;;5075727;28;20508;-55
2023/08/13 12:23:54;;;;;;;3.03;1.60;;;;;;;;;;5083352;28;20610;-55
2023/08/13 12:26:22;;;;;;;2.70;1.70;;;;;;;;;;5084659;28;20535;-55
2023/08/13 12:28:51;;;;;;;3.37;1.90;;;;;;;;;;5093307;28;20527;-55
2023/08/13 12:31:20;;;;;;;2.93;2.07;;;;;;;;;;5083435;28;20510;-55
2023/08/13 12:33:47;;;;;;;3.03;1.70;;;;;;;;;;5086864;28;20515;-55
2023/08/13 12:36:14;;;;;;;3.80;2.10;;;;;;;;;;5092856;28;20491;-55
2023/08/13 12:38:42;;;;;;;3.00;1.70;;;;;;;;;;5082710;28;20523;-56
2023/08/13 12:41:09;;;;;;;4.53;1.97;;;;;;;;;;5077792;28;20484;-55
2023/08/13 12:43:37;;;;;;;3.80;1.87;;;;;;;;;;5070106;28;20495;-55
2023/08/13 12:46:05;;;;;;;3.50;1.80;;;;;;;;;;5069528;28;20900;-56
2023/08/13 12:48:35;;;;;;;2.53;1.70;;;;;;;;;;5070103;28;20480;-56
2023/08/13 12:51:03;;;;;;;4.40;2.00;;;;;;;;;;5070002;28;20472;-55
2023/08/13 12:53:30;;;;;;;2.60;1.70;;;;;;;;;;5070662;28;20560;-56
2023/08/13 12:56:03;;;;;;;2.63;1.53;;;;;;;;;;5071844;28;21043;-55
2023/08/13 12:58:30;;;;;;;2.20;1.60;;;;;;;;;;5072528;28;20436;-56
2023/08/13 13:00:58;;;;;;;3.30;2.40;;;;;;;;;;5072291;28;20436;-55
2023/08/13 13:03:25;;;;;;;3.50;1.70;;;;;;;;;;5072554;28;20472;-55
2023/08/13 13:05:54;;;;;;;2.53;1.70;;;;;;;;;;5072405;28;20627;-56
2023/08/13 13:08:21;;;;;;;2.90;2.03;;;;;;;;;;5072067;28;20497;-55
2023/08/13 13:10:48;;;;;;;3.60;1.80;;;;;;;;;;5072184;28;20916;-56
2023/08/13 13:13:15;;;;;;;3.77;2.10;;;;;;;;;;5071930;28;20437;-56
2023/08/13 13:15:43;;;;;;;2.70;2.07;;;;;;;;;;5072334;28;20547;-56
2023/08/13 13:18:10;;;;;;;3.97;1.80;;;;;;;;;;5072433;28;20523;-56
2023/08/13 13:20:37;;;;;;;2.70;1.80;;;;;;;;;;5071774;28;20468;-54
2023/08/13 13:23:06;;;;;;;4.90;2.03;;;;;;;;;;5071938;28;20455;-55
2023/08/13 13:25:33;;;;;;;3.60;1.87;;;;;;;;;;5071971;28;20495;-55
2023/08/13 13:28:01;;;;;;;4.33;1.73;;;;;;;;;;5071820;28;20923;-55
2023/08/13 13:30:33;;;;;;;2.70;1.97;;;;;;;;;;5071390;28;20444;-55
2023/08/13 13:33:00;;;;;;;3.33;1.90;;;;;;;;;;5071815;28;20432;-54
2023/08/13 13:35:28;;;;;;;2.50;1.80;;;;;;;;;;5071853;28;20966;-55
2023/08/13 13:37:55;;;;;;;3.90;2.07;;;;;;;;;;5072303;28;20524;-54
2023/08/13 13:40:24;;;;;;;2.70;2.10;;;;;;;;;;5071721;28;20437;-55
2023/08/13 13:42:51;;;;;;;3.03;2.07;;;;;;;;;;5072108;28;20756;-54
2023/08/13 13:45:19;;;;;;;4.20;1.90;;;;;;;;;;5071088;28;20540;-55
2023/08/13 13:47:47;;;;;;;3.53;1.87;;;;;;;;;;5071672;28;20451;-56
2023/08/13 13:50:15;;;;;;;2.47;1.73;;;;;;;;;;5070756;28;21001;-55
2023/08/13 13:52:42;;;;;;;3.07;2.20;;;;;;;;;;5070640;28;21073;-54
2023/08/13 13:55:10;;;;;;;3.33;1.90;;;;;;;;;;5071242;28;20594;-55
2023/08/13 13:57:38;;;;;;;2.73;2.00;;;;;;;;;;5081562;28;20452;-54
2023/08/13 14:00:07;;;;;;;2.83;1.77;;;;;;;;;;5082428;28;20865;-55
2023/08/13 14:02:34;;;;;;;2.50;1.67;;;;;;;;;;5079261;28;20812;-55
2023/08/13 14:05:02;;;;;;;4.43;1.90;;;;;;;;;;5070661;28;20548;-55
2023/08/13 14:07:30;;;;;;;3.67;2.20;;;;;;;;;;5070004;28;20432;-55
2023/08/13 14:09:57;;;;;;;2.83;1.57;;;;;;;;;;5069537;28;20448;-56
2023/08/13 14:12:24;;;;;;;3.07;1.90;;;;;;;;;;5069144;28;20476;-55
2023/08/13 14:14:53;;;;;;;5.80;2.33;;;;;;;;;;5069875;28;20486;-55
2023/08/13 14:17:20;;;;;;;3.20;2.20;;;;;;;;;;5069819;28;20442;-55
2023/08/13 14:19:48;;;;;;;4.87;2.73;;;;;;;;;;5069952;28;20538;-56
2023/08/13 14:22:15;;;;;;;2.40;1.77;;;;;;;;;;5070124;28;20530;-54
2023/08/13 14:24:43;;;;;;;2.87;2.37;;;;;;;;;;5070809;28;20437;-55
2023/08/13 14:27:10;;;;;;;3.20;1.80;;;;;;;;;;5070519;28;20440;-55
2023/08/13 14:29:38;;;;;;;2.50;1.80;;;;;;;;;;5049752;28;20476;-55
2023/08/13 14:32:07;;;;;;;5.30;1.70;;;;;;;;;;5050421;28;20509;-54
2023/08/13 14:34:34;;;;;;;2.50;1.70;;;;;;;;;;5054397;28;20457;-55
2023/08/13 14:37:01;;;;;;;3.53;1.93;;;;;;;;;;5058438;28;20488;-56
2023/08/13 14:39:29;;;;;;;3.47;2.20;;;;;;;;;;5076657;28;20886;-56
2023/08/13 14:41:57;;;;;;;3.20;2.00;;;;;;;;;;5072619;28;20444;-54
2023/08/13 14:44:24;;;;;;;4.17;1.80;;;;;;;;;;5075022;28;20526;-56
2023/08/13 14:46:52;;;;;;;5.70;3.00;;;;;;;;;;5086277;28;20467;-55